Time;durP1;ratioP1;P1;durP2;ratioP2;P2;SDS_P1;SDS_P2;PMS_P1;PMS_P2;Temp;Humidity;BMP_temperature;BMP_pressure;BME280_temperature;BME280_humidity;BME280_pressure;Samples;Min_cycle;Max_cycle;Signal;HPM_P1;HPM_P2
2023/12/29 00:01:19;;;;;;;21.42;3.80;;;10.50;99.90;;;;;;4202782;28;20021;-72
2023/12/29 00:03:19;;;;;;;34.63;4.82;;;10.40;99.90;;;;;;4202776;28;20499;-72
2023/12/29 00:05:20;;;;;;;27.83;4.75;;;10.40;99.90;;;;;;4202848;28;20020;-72
2023/12/29 00:07:21;;;;;;;26.48;4.60;;;10.30;99.90;;;;;;4203206;28;20020;-72
2023/12/29 00:09:21;;;;;;;26.40;3.50;;;10.30;99.90;;;;;;4203968;28;20048;-72
2023/12/29 00:11:22;;;;;;;27.58;5.50;;;10.20;99.90;;;;;;4201599;28;20025;-72
2023/12/29 00:13:24;;;;;;;18.20;3.65;;;10.20;99.90;;;;;;4202804;28;20570;-72
2023/12/29 00:15:25;;;;;;;20.30;3.17;;;10.10;99.90;;;;;;4202877;28;20020;-72
2023/12/29 00:17:25;;;;;;;27.35;3.33;;;10.10;99.90;;;;;;4202507;28;20537;-72
2023/12/29 00:19:26;;;;;;;26.02;4.38;;;10.00;99.90;;;;;;4202491;28;20040;-72
2023/12/29 00:21:26;;;;;;;27.27;4.82;;;10.00;99.90;;;;;;4201303;28;20020;-72
2023/12/29 00:23:27;;;;;;;25.77;3.55;;;10.10;99.90;;;;;;4202711;28;20467;-72
2023/12/29 00:25:28;;;;;;;25.20;4.63;;;10.20;99.90;;;;;;4202284;28;20063;-72
2023/12/29 00:27:28;;;;;;;31.75;5.45;;;10.10;99.90;;;;;;4202429;28;20495;-72
2023/12/29 00:29:32;;;;;;;19.63;4.53;;;10.10;99.90;;;;;;4200019;28;20028;-72
2023/12/29 00:31:33;;;;;;;23.55;4.95;;;10.20;99.90;;;;;;4178005;28;20090;-72
2023/12/29 00:33:34;;;;;;;20.10;3.85;;;10.20;99.90;;;;;;4202447;28;20024;-72
2023/12/29 00:35:38;;;;;;;28.45;4.07;;;10.20;99.90;;;;;;4201830;28;20074;-72
2023/12/29 00:37:38;;;;;;;27.42;3.05;;;10.20;99.90;;;;;;4202489;28;20025;-72
2023/12/29 00:39:39;;;;;;;23.40;3.85;;;10.20;99.90;;;;;;4201290;28;20535;-72
2023/12/29 00:41:40;;;;;;;29.08;4.00;;;10.20;99.90;;;;;;4202378;28;20024;-72
2023/12/29 00:43:41;;;;;;;28.30;3.65;;;10.20;99.90;;;;;;4202256;28;20021;-72
2023/12/29 00:45:42;;;;;;;16.88;3.08;;;10.20;99.90;;;;;;4202298;28;20023;-72
2023/12/29 00:47:43;;;;;;;24.40;3.55;;;10.10;99.90;;;;;;4201178;28;20108;-72
2023/12/29 00:49:44;;;;;;;23.85;3.45;;;10.10;99.90;;;;;;4202280;28;20025;-72
2023/12/29 00:51:45;;;;;;;24.17;3.72;;;10.10;99.90;;;;;;4200903;28;20546;-72
2023/12/29 00:53:45;;;;;;;23.88;2.72;;;10.10;99.90;;;;;;4184362;28;20167;-72
2023/12/29 00:55:46;;;;;;;21.60;4.65;;;10.10;99.90;;;;;;4194848;28;20530;-72
2023/12/29 00:57:47;;;;;;;27.67;3.22;;;10.10;99.90;;;;;;4200659;28;20033;-72
2023/12/29 00:59:47;;;;;;;23.70;3.65;;;10.10;99.90;;;;;;4201812;28;20582;-72
2023/12/29 01:01:48;;;;;;;26.02;3.58;;;10.10;99.90;;;;;;4202092;28;20056;-72
2023/12/29 01:03:49;;;;;;;17.10;3.28;;;10.10;99.90;;;;;;4200598;28;20017;-72
2023/12/29 01:05:49;;;;;;;18.73;3.65;;;10.10;99.90;;;;;;4202032;28;20031;-72
2023/12/29 01:07:50;;;;;;;24.35;3.60;;;10.00;99.90;;;;;;4201856;28;20028;-72
2023/12/29 01:09:51;;;;;;;14.60;3.10;;;10.00;99.90;;;;;;4201910;28;20422;-72
2023/12/29 01:11:52;;;;;;;13.00;2.30;;;10.00;99.90;;;;;;4202035;28;20076;-72
2023/12/29 01:13:52;;;;;;;21.10;3.95;;;10.00;99.90;;;;;;4202050;28;20024;-72
2023/12/29 01:15:53;;;;;;;26.20;2.70;;;10.00;99.90;;;;;;4201861;28;20032;-72
2023/12/29 01:17:54;;;;;;;15.48;3.28;;;10.10;99.90;;;;;;4200540;28;20037;-72
2023/12/29 01:19:54;;;;;;;24.13;3.80;;;10.10;99.90;;;;;;4201807;28;20033;-72
2023/12/29 01:21:55;;;;;;;22.23;2.38;;;10.10;99.90;;;;;;4200589;28;20025;-72
2023/12/29 01:23:56;;;;;;;20.52;3.22;;;10.10;99.90;;;;;;4201792;28;20024;-72
2023/12/29 01:25:56;;;;;;;20.05;3.72;;;10.00;99.90;;;;;;4200383;28;20048;-72
2023/12/29 01:27:57;;;;;;;28.83;3.72;;;10.00;99.90;;;;;;4201802;28;20024;-72
2023/12/29 01:29:58;;;;;;;21.50;3.38;;;10.10;99.90;;;;;;4195357;28;20032;-72
2023/12/29 01:31:58;;;;;;;25.33;3.30;;;10.10;99.90;;;;;;4198280;28;20488;-72
2023/12/29 01:33:59;;;;;;;18.75;3.38;;;10.20;99.90;;;;;;4201959;28;20528;-72
2023/12/29 01:36:00;;;;;;;23.50;3.50;;;10.10;99.90;;;;;;4201728;28;20024;-72
2023/12/29 01:38:02;;;;;;;24.38;3.42;;;10.20;99.90;;;;;;4201806;28;20056;-72
2023/12/29 01:40:03;;;;;;;19.15;3.45;;;10.10;99.90;;;;;;4183440;28;20025;-72
2023/12/29 01:42:04;;;;;;;29.45;3.08;;;10.10;99.90;;;;;;4226373;28;20032;-72
2023/12/29 01:44:21;;;;;;;22.15;3.00;;;10.10;99.90;;;;;;4190866;28;20031;-72
2023/12/29 01:46:22;;;;;;;17.50;3.35;;;10.10;99.90;;;;;;4200561;28;20021;-72
2023/12/29 01:48:24;;;;;;;18.00;2.72;;;10.00;99.90;;;;;;4200465;28;20023;-72
2023/12/29 01:50:24;;;;;;;18.17;3.38;;;10.10;99.90;;;;;;4200542;28;20020;-72
2023/12/29 01:52:25;;;;;;;23.17;3.55;;;10.10;99.90;;;;;;4204456;28;20020;-72
2023/12/29 01:54:29;;;;;;;15.10;3.63;;;10.10;99.90;;;;;;4204863;28;20056;-72
2023/12/29 01:56:30;;;;;;;;;;;10.20;99.90;;;;;;4204071;28;20016;-72
2023/12/29 01:58:31;;;;;;;16.75;3.38;;;10.10;99.90;;;;;;4204811;28;19904;-72
2023/12/29 02:00:32;;;;;;;13.70;3.88;;;10.10;99.90;;;;;;4204843;28;20099;-72
2023/12/29 02:02:33;;;;;;;19.33;2.78;;;10.10;99.90;;;;;;4203559;28;20074;-72
2023/12/29 02:04:33;;;;;;;22.58;3.13;;;10.10;99.90;;;;;;4204441;28;20476;-72
2023/12/29 02:06:35;;;;;;;17.80;2.70;;;10.10;99.90;;;;;;4203637;28;20078;-72
2023/12/29 02:08:37;;;;;;;19.98;3.78;;;10.10;99.90;;;;;;4186782;28;20084;-72
2023/12/29 02:10:37;;;;;;;26.02;3.00;;;10.10;99.90;;;;;;4203286;28;20020;-72
2023/12/29 02:12:38;;;;;;;17.00;2.60;;;10.10;99.90;;;;;;4203122;28;20029;-72
2023/12/29 02:14:39;;;;;;;17.58;3.40;;;10.10;99.90;;;;;;4214256;28;20027;-72
2023/12/29 02:17:13;;;;;;;17.67;3.38;;;10.10;99.90;;;;;;4204859;28;20395;-72
2023/12/29 02:19:37;;;;;;;23.40;3.38;;;10.20;99.90;;;;;;4203143;28;20036;-72
2023/12/29 02:21:38;;;;;;;25.63;4.25;;;10.30;99.90;;;;;;4196851;28;20535;-72
2023/12/29 02:23:38;;;;;;;18.17;3.88;;;10.30;99.90;;;;;;4204454;28;20036;-72
2023/12/29 02:25:39;;;;;;;21.48;3.25;;;10.30;99.90;;;;;;4202928;28;20087;-72
2023/12/29 02:28:07;;;;;;;18.00;4.85;;;10.30;99.90;;;;;;4203098;28;20487;-72
2023/12/29 02:30:11;;;;;;;21.88;4.00;;;10.20;99.90;;;;;;4190055;28;20060;-72
2023/12/29 02:32:14;;;;;;;20.25;4.78;;;10.30;99.90;;;;;;4202608;28;20437;-72
2023/12/29 02:34:16;;;;;;;20.23;3.47;;;10.20;99.90;;;;;;4186527;28;20021;-72
2023/12/29 02:36:17;;;;;;;15.00;3.78;;;10.20;99.90;;;;;;4202715;28;20033;-72
2023/12/29 02:38:18;;;;;;;21.25;4.47;;;10.20;99.90;;;;;;4202933;28;20033;-72
2023/12/29 02:40:19;;;;;;;24.65;5.20;;;10.10;99.90;;;;;;4202861;28;20029;-72
2023/12/29 02:42:19;;;;;;;23.90;3.15;;;10.10;99.90;;;;;;4186422;28;20025;-72
2023/12/29 02:44:20;;;;;;;19.73;3.75;;;10.10;99.90;;;;;;4202941;28;20087;-72
2023/12/29 02:46:21;;;;;;;23.75;2.67;;;10.10;99.90;;;;;;4204284;28;20031;-72
2023/12/29 02:48:21;;;;;;;24.15;3.83;;;10.10;99.90;;;;;;4204097;28;20395;-72
2023/12/29 02:50:22;;;;;;;25.40;3.70;;;10.20;99.90;;;;;;4204193;28;20032;-72
2023/12/29 02:52:23;;;;;;;25.38;4.40;;;10.30;99.90;;;;;;4203995;28;20028;-72
2023/12/29 02:54:23;;;;;;;22.17;2.97;;;10.40;99.90;;;;;;4203771;28;20479;-72
2023/12/29 02:56:24;;;;;;;22.25;4.88;;;10.40;99.90;;;;;;4203897;28;20024;-72
2023/12/29 02:58:25;;;;;;;23.30;3.72;;;10.40;99.90;;;;;;4202685;28;20021;-72
2023/12/29 03:00:25;;;;;;;18.95;3.42;;;10.40;99.90;;;;;;4203940;28;20024;-72
2023/12/29 03:02:26;;;;;;;26.25;3.40;;;10.40;99.90;;;;;;4202339;28;20036;-72
2023/12/29 03:04:27;;;;;;;23.40;4.90;;;10.30;99.90;;;;;;4203220;28;20028;-72
2023/12/29 03:06:27;;;;;;;16.60;3.10;;;10.20;99.90;;;;;;4203769;28;20016;-72
2023/12/29 03:08:28;;;;;;;23.73;3.83;;;10.20;99.90;;;;;;4202615;28;20024;-72
2023/12/29 03:10:28;;;;;;;18.42;3.00;;;10.20;99.90;;;;;;4202332;28;20024;-72
2023/12/29 03:12:30;;;;;;;25.10;3.30;;;10.20;99.90;;;;;;4203720;28;20030;-72
2023/12/29 03:14:31;;;;;;;21.05;3.95;;;10.20;99.90;;;;;;4203713;28;20024;-72
2023/12/29 03:16:31;;;;;;;23.05;2.70;;;10.20;99.90;;;;;;4203730;28;20059;-72
2023/12/29 03:18:32;;;;;;;16.83;4.07;;;10.20;99.90;;;;;;4203404;28;20086;-72
2023/12/29 03:20:33;;;;;;;27.23;4.78;;;10.20;99.90;;;;;;4202410;28;20025;-72
2023/12/29 03:22:33;;;;;;;30.27;3.58;;;10.10;99.90;;;;;;4202202;28;20028;-72
2023/12/29 03:24:34;;;;;;;26.75;4.35;;;10.20;99.90;;;;;;4203265;28;20047;-72
2023/12/29 03:26:35;;;;;;;18.90;3.08;;;10.20;99.90;;;;;;4202393;28;20023;-72
2023/12/29 03:28:36;;;;;;;27.05;4.43;;;10.20;99.90;;;;;;4203416;28;20074;-72
2023/12/29 03:30:36;;;;;;;22.70;3.33;;;10.20;99.90;;;;;;4193360;28;20017;-71
2023/12/29 03:32:37;;;;;;;22.05;3.83;;;10.20;99.90;;;;;;4203610;28;20503;-72
2023/12/29 03:34:38;;;;;;;27.40;3.47;;;10.20;99.90;;;;;;4203478;28;20017;-72
2023/12/29 03:36:38;;;;;;;25.55;5.30;;;10.20;99.90;;;;;;4202225;28;20062;-72
2023/12/29 03:38:39;;;;;;;19.05;3.17;;;10.20;99.90;;;;;;4202799;28;20024;-72
2023/12/29 03:40:40;;;;;;;19.02;2.97;;;10.20;99.90;;;;;;4203320;28;20028;-72
2023/12/29 03:42:41;;;;;;;24.73;4.13;;;10.20;99.90;;;;;;4202213;28;20380;-72
2023/12/29 03:44:42;;;;;;;21.63;3.45;;;10.20;99.90;;;;;;4202158;28;20048;-72
2023/12/29 03:46:43;;;;;;;23.85;3.50;;;10.20;99.90;;;;;;4203039;28;20396;-72
2023/12/29 03:48:44;;;;;;;22.98;4.57;;;10.10;99.90;;;;;;4201957;28;20031;-72
2023/12/29 03:50:44;;;;;;;12.95;3.38;;;10.10;99.90;;;;;;4203145;28;20453;-72
2023/12/29 03:52:45;;;;;;;25.15;3.20;;;10.10;99.90;;;;;;4185135;28;20033;-72
2023/12/29 03:54:46;;;;;;;23.35;3.70;;;10.10;99.90;;;;;;4199426;28;20492;-72
2023/12/29 03:56:46;;;;;;;25.42;4.32;;;10.10;99.90;;;;;;4203007;28;20029;-72
2023/12/29 03:58:47;;;;;;;22.13;3.80;;;10.10;99.90;;;;;;4185086;28;20100;-72
2023/12/29 04:00:48;;;;;;;15.68;3.25;;;10.10;99.90;;;;;;4202965;28;20027;-72
2023/12/29 04:02:48;;;;;;;23.40;3.80;;;10.10;99.90;;;;;;4201748;28;20488;-72
2023/12/29 04:04:49;;;;;;;30.75;4.72;;;10.10;99.90;;;;;;4201566;28;20043;-72
2023/12/29 04:06:50;;;;;;;25.10;3.47;;;10.20;99.90;;;;;;4201864;28;20030;-71
2023/12/29 04:08:50;;;;;;;20.77;3.30;;;10.20;99.90;;;;;;4202707;28;20028;-72
2023/12/29 04:10:51;;;;;;;19.98;2.90;;;10.20;99.90;;;;;;4201326;28;20024;-72
2023/12/29 04:12:52;;;;;;;17.75;3.72;;;10.30;99.90;;;;;;4202773;28;20376;-72
2023/12/29 04:14:52;;;;;;;17.30;3.08;;;10.30;99.90;;;;;;4209813;28;20082;-72
2023/12/29 04:16:53;;;;;;;16.80;2.92;;;10.30;99.90;;;;;;4201742;28;20020;-72
2023/12/29 04:18:54;;;;;;;18.15;2.72;;;10.30;99.90;;;;;;4202379;28;20500;-72
2023/12/29 04:20:54;;;;;;;21.45;3.03;;;10.40;99.90;;;;;;4202480;28;20122;-72
2023/12/29 04:22:55;;;;;;;21.40;3.10;;;10.40;99.90;;;;;;4202621;28;20020;-72
2023/12/29 04:24:56;;;;;;;23.42;3.72;;;10.40;99.90;;;;;;4184707;28;20017;-72
2023/12/29 04:26:56;;;;;;;19.02;3.90;;;10.40;99.90;;;;;;4197553;28;20023;-72
2023/12/29 04:28:57;;;;;;;21.50;3.45;;;10.40;99.90;;;;;;4202317;28;20028;-72
2023/12/29 04:30:58;;;;;;;22.90;3.10;;;10.40;99.90;;;;;;4191251;28;20028;-72
2023/12/29 04:32:58;;;;;;;20.52;3.45;;;10.30;99.90;;;;;;4202441;28;20031;-72
2023/12/29 04:34:59;;;;;;;20.48;4.05;;;10.30;99.90;;;;;;4202356;28;20029;-72
2023/12/29 04:36:59;;;;;;;19.95;2.80;;;10.30;99.90;;;;;;4200944;28;20028;-72
2023/12/29 04:39:00;;;;;;;19.45;2.83;;;10.30;99.90;;;;;;4184421;28;20035;-72
2023/12/29 04:41:01;;;;;;;22.27;3.35;;;10.30;99.90;;;;;;4193352;28;20025;-71
2023/12/29 04:43:01;;;;;;;27.73;3.22;;;10.40;99.90;;;;;;4201019;28;20025;-72
2023/12/29 04:45:03;;;;;;;20.25;3.95;;;10.40;99.90;;;;;;4201996;28;20021;-72
2023/12/29 04:47:04;;;;;;;27.77;3.78;;;10.40;99.90;;;;;;4202013;28;20020;-72
2023/12/29 04:49:04;;;;;;;21.42;3.20;;;10.50;99.90;;;;;;4202142;28;20032;-72
2023/12/29 04:51:05;;;;;;;17.23;3.58;;;10.60;99.90;;;;;;4200817;28;20032;-72
2023/12/29 04:53:06;;;;;;;24.85;3.42;;;10.60;99.90;;;;;;4200834;28;20112;-72
2023/12/29 04:55:07;;;;;;;22.38;3.70;;;10.60;99.90;;;;;;4201897;28;20031;-72
2023/12/29 04:57:08;;;;;;;17.92;2.67;;;10.70;99.90;;;;;;4202310;28;20082;-72
2023/12/29 04:59:08;;;;;;;19.08;3.63;;;10.70;99.90;;;;;;4201965;28;20028;-72
2023/12/29 05:01:09;;;;;;;21.40;3.47;;;10.70;99.90;;;;;;4201801;28;20032;-72
2023/12/29 05:03:10;;;;;;;31.60;4.90;;;10.60;99.90;;;;;;4200629;28;20021;-72
2023/12/29 05:05:10;;;;;;;14.82;3.70;;;10.60;99.90;;;;;;4234431;28;20020;-72
2023/12/29 05:07:11;;;;;;;22.38;3.53;;;10.60;99.90;;;;;;4201969;28;20031;-72
2023/12/29 05:09:12;;;;;;;20.42;3.30;;;10.50;99.90;;;;;;4201627;28;20063;-72
2023/12/29 05:11:13;;;;;;;23.55;3.70;;;10.50;99.90;;;;;;4200446;28;20025;-72
2023/12/29 05:13:13;;;;;;;17.80;4.15;;;10.50;99.90;;;;;;4202077;28;20115;-72
2023/12/29 05:15:14;;;;;;;18.50;3.25;;;10.50;99.90;;;;;;4202013;28;20158;-72
2023/12/29 05:17:15;;;;;;;26.15;3.65;;;10.40;99.90;;;;;;4200516;28;20033;-72
2023/12/29 05:19:15;;;;;;;21.98;4.32;;;10.40;99.90;;;;;;4183679;28;20029;-72
2023/12/29 05:21:17;;;;;;;22.23;4.15;;;10.40;99.90;;;;;;4204715;28;20061;-72
2023/12/29 05:23:17;;;;;;;20.30;3.67;;;10.40;99.90;;;;;;4200655;28;20013;-72
2023/12/29 05:25:21;;;;;;;29.70;3.63;;;10.40;99.90;;;;;;4201603;28;20491;-72
2023/12/29 05:27:22;;;;;;;21.25;4.28;;;10.40;99.90;;;;;;4200009;28;20025;-72
2023/12/29 05:29:23;;;;;;;22.10;3.50;;;10.40;99.90;;;;;;4229517;28;20473;-72
2023/12/29 05:31:24;;;;;;;29.83;3.83;;;10.40;99.90;;;;;;4191626;28;20056;-72
2023/12/29 05:33:24;;;;;;;21.92;4.05;;;10.50;99.90;;;;;;4201806;28;20442;-72
2023/12/29 05:35:25;;;;;;;21.98;3.42;;;10.50;99.90;;;;;;4201741;28;20039;-72
2023/12/29 05:37:26;;;;;;;22.67;3.75;;;10.50;99.90;;;;;;4183734;28;20029;-72
2023/12/29 05:39:26;;;;;;;22.88;3.38;;;10.40;99.90;;;;;;4194075;28;20627;-72
2023/12/29 05:41:27;;;;;;;18.27;3.70;;;10.30;99.90;;;;;;4183533;28;20159;-72
2023/12/29 05:43:28;;;;;;;17.73;3.95;;;10.30;99.90;;;;;;4201509;28;20031;-72
2023/12/29 05:45:28;;;;;;;27.38;5.10;;;10.30;99.90;;;;;;4201689;28;20024;-72
2023/12/29 05:47:30;;;;;;;21.63;3.72;;;10.30;99.90;;;;;;4200507;28;20013;-72
2023/12/29 05:49:31;;;;;;;17.98;4.93;;;10.30;99.90;;;;;;4201562;28;20028;-72
2023/12/29 05:51:32;;;;;;;28.92;4.03;;;10.30;99.90;;;;;;4201377;28;20017;-72
2023/12/29 05:53:36;;;;;;;25.83;3.60;;;10.30;99.90;;;;;;4200262;28;20024;-72
2023/12/29 05:55:37;;;;;;;19.15;3.53;;;10.40;99.90;;;;;;4201482;28;20016;-72
2023/12/29 05:57:37;;;;;;;18.15;3.05;;;10.40;99.90;;;;;;4200569;28;20107;-72
2023/12/29 05:59:38;;;;;;;23.40;3.38;;;10.50;99.90;;;;;;4201374;28;20410;-72
2023/12/29 06:01:38;;;;;;;24.10;4.38;;;10.60;99.90;;;;;;4183677;28;20040;-72
2023/12/29 06:03:39;;;;;;;20.63;4.00;;;10.60;99.90;;;;;;4191395;28;20092;-72
2023/12/29 06:05:40;;;;;;;19.25;3.88;;;10.50;99.90;;;;;;4201394;28;20054;-72
2023/12/29 06:07:40;;;;;;;19.92;4.15;;;10.50;99.90;;;;;;4183564;28;20025;-72
2023/12/29 06:09:41;;;;;;;20.13;4.20;;;10.50;99.90;;;;;;4200816;28;20063;-72
2023/12/29 06:11:42;;;;;;;17.30;3.20;;;10.50;99.90;;;;;;4201626;28;20064;-72
2023/12/29 06:13:42;;;;;;;16.33;2.88;;;10.50;99.90;;;;;;4201419;28;20039;-72
2023/12/29 06:15:43;;;;;;;27.23;3.75;;;10.40;99.90;;;;;;4202269;28;20395;-72
2023/12/29 06:17:44;;;;;;;16.92;3.67;;;10.40;99.90;;;;;;4214503;28;20040;-72
2023/12/29 06:19:44;;;;;;;21.13;3.15;;;10.40;99.90;;;;;;4201254;28;20100;-72
2023/12/29 06:21:45;;;;;;;16.88;3.33;;;10.40;99.90;;;;;;4201537;28;20032;-72
2023/12/29 06:23:46;;;;;;;18.35;3.80;;;10.50;99.90;;;;;;4201441;28;20021;-72
2023/12/29 06:25:46;;;;;;;29.35;3.35;;;10.40;99.90;;;;;;4199878;28;20024;-72
2023/12/29 06:27:48;;;;;;;23.95;3.00;;;10.40;99.90;;;;;;4201344;28;20095;-72
2023/12/29 06:29:48;;;;;;;21.50;3.35;;;10.50;99.90;;;;;;4183469;28;20029;-72
2023/12/29 06:31:49;;;;;;;24.95;4.35;;;10.50;99.90;;;;;;4200038;28;20090;-72
2023/12/29 06:33:50;;;;;;;20.30;3.35;;;10.50;99.90;;;;;;4201101;28;20415;-72
2023/12/29 06:35:50;;;;;;;17.63;2.20;;;10.60;99.90;;;;;;4200111;28;20123;-72
2023/12/29 06:37:51;;;;;;;18.45;3.10;;;10.70;99.90;;;;;;4201424;28;20028;-72
2023/12/29 06:39:52;;;;;;;26.02;4.05;;;10.70;99.90;;;;;;4203971;28;20079;-72
2023/12/29 06:41:52;;;;;;;11.20;2.55;;;10.80;99.90;;;;;;4202916;28;20024;-72
2023/12/29 06:43:53;;;;;;;21.15;2.95;;;10.80;99.90;;;;;;4204418;28;20021;-72
2023/12/29 06:45:53;;;;;;;20.98;3.10;;;10.90;99.90;;;;;;4202829;28;20043;-72
2023/12/29 06:47:54;;;;;;;21.27;4.60;;;10.90;99.90;;;;;;4203898;28;20020;-72
2023/12/29 06:49:55;;;;;;;21.95;3.60;;;10.90;99.90;;;;;;4203961;28;20056;-72
2023/12/29 06:51:55;;;;;;;21.23;3.88;;;11.00;99.90;;;;;;4204132;28;20387;-72
2023/12/29 06:53:56;;;;;;;19.88;4.53;;;11.00;99.90;;;;;;4203891;28;20054;-72
2023/12/29 06:55:57;;;;;;;22.50;3.88;;;11.00;99.90;;;;;;4202624;28;20070;-72
2023/12/29 06:57:57;;;;;;;22.90;2.22;;;11.00;99.90;;;;;;4203827;28;20040;-72
2023/12/29 06:59:58;;;;;;;22.92;2.75;;;10.90;99.90;;;;;;4202376;28;20024;-72
2023/12/29 07:01:59;;;;;;;22.58;3.28;;;10.90;99.90;;;;;;4236428;28;20019;-72
2023/12/29 07:03:59;;;;;;;17.65;2.30;;;10.80;99.90;;;;;;4202399;28;20016;-72
2023/12/29 07:06:03;;;;;;;17.23;3.20;;;10.70;99.90;;;;;;4202554;28;20029;-72
2023/12/29 07:08:04;;;;;;;28.95;2.53;;;10.60;99.90;;;;;;4203693;28;20020;-72
2023/12/29 07:10:06;;;;;;;17.83;2.33;;;10.60;99.90;;;;;;4203543;28;20032;-72
2023/12/29 07:12:07;;;;;;;18.52;2.78;;;10.50;99.90;;;;;;4203710;28;20052;-72
2023/12/29 07:14:07;;;;;;;21.23;3.03;;;10.50;99.90;;;;;;4202619;28;20039;-72
2023/12/29 07:16:08;;;;;;;15.65;2.92;;;10.50;99.90;;;;;;4203523;28;20020;-72
2023/12/29 07:18:08;;;;;;;27.23;3.92;;;10.50;99.90;;;;;;4203681;28;20503;-72
2023/12/29 07:20:09;;;;;;;16.65;3.13;;;10.50;99.90;;;;;;4202288;28;20115;-72
2023/12/29 07:22:10;;;;;;;15.07;2.70;;;10.40;99.90;;;;;;4203567;28;20407;-72
2023/12/29 07:24:11;;;;;;;18.48;3.50;;;10.40;99.90;;;;;;4202052;28;20074;-72
2023/12/29 07:26:11;;;;;;;24.25;3.00;;;10.50;99.90;;;;;;4203567;28;20028;-72
2023/12/29 07:28:12;;;;;;;18.38;4.22;;;10.50;99.90;;;;;;4202390;28;20051;-72
2023/12/29 07:30:13;;;;;;;26.30;3.50;;;10.50;99.90;;;;;;4195016;28;20053;-72
2023/12/29 07:32:14;;;;;;;16.70;2.40;;;10.60;99.90;;;;;;4201225;28;20029;-72
2023/12/29 07:34:14;;;;;;;21.23;3.65;;;10.60;99.90;;;;;;4203481;28;20034;-72
2023/12/29 07:36:15;;;;;;;15.23;2.08;;;10.60;99.90;;;;;;4185603;28;20043;-72
2023/12/29 07:38:16;;;;;;;16.80;3.30;;;10.70;99.90;;;;;;4203375;28;20033;-72
2023/12/29 07:40:17;;;;;;;19.17;2.38;;;10.70;99.90;;;;;;4201712;28;20028;-72
2023/12/29 07:42:18;;;;;;;17.20;2.33;;;10.80;99.90;;;;;;4202270;28;20027;-72
2023/12/29 07:44:18;;;;;;;17.67;2.83;;;10.80;99.90;;;;;;4203073;28;20436;-72
2023/12/29 07:46:26;;;;;;;15.65;2.53;;;10.80;99.90;;;;;;4203414;28;20032;-72
2023/12/29 07:48:27;;;;;;;18.52;2.30;;;10.90;99.90;;;;;;4201837;28;20025;-72
2023/12/29 07:50:27;;;;;;;13.90;2.05;;;10.90;99.90;;;;;;4201706;28;20043;-72
2023/12/29 07:52:29;;;;;;;15.75;2.40;;;10.90;99.90;;;;;;4203017;28;20073;-72
2023/12/29 07:54:30;;;;;;;19.17;3.72;;;10.90;99.90;;;;;;4185178;28;20029;-72
2023/12/29 07:56:30;;;;;;;17.52;2.75;;;11.00;99.90;;;;;;4199399;28;20044;-72
2023/12/29 07:58:32;;;;;;;15.65;2.03;;;11.00;99.90;;;;;;4203005;28;20016;-72
2023/12/29 08:00:33;;;;;;;21.20;2.70;;;11.00;99.90;;;;;;4202892;28;20430;-72
2023/12/29 08:02:34;;;;;;;23.55;3.28;;;11.00;99.90;;;;;;4201883;28;20430;-72
2023/12/29 08:04:35;;;;;;;19.15;3.38;;;11.00;99.90;;;;;;4202690;28;20052;-72
2023/12/29 08:06:39;;;;;;;19.40;3.03;;;11.10;99.90;;;;;;4201581;28;20020;-72
2023/12/29 08:08:40;;;;;;;17.00;2.90;;;11.10;99.90;;;;;;4201737;28;20039;-72
2023/12/29 08:10:41;;;;;;;24.42;3.05;;;11.10;99.90;;;;;;4202900;28;20522;-72
2023/12/29 08:12:41;;;;;;;12.85;3.20;;;11.10;99.90;;;;;;4202805;28;20029;-72
2023/12/29 08:14:42;;;;;;;21.60;3.00;;;11.10;99.90;;;;;;4201571;28;20422;-72
2023/12/29 08:16:43;;;;;;;21.88;4.60;;;11.00;99.90;;;;;;4203589;28;20108;-72
2023/12/29 08:18:43;;;;;;;20.83;2.22;;;10.90;99.90;;;;;;4205366;28;20047;-72
2023/12/29 08:20:44;;;;;;;23.95;3.08;;;10.90;99.90;;;;;;4201527;28;20511;-72
2023/12/29 08:22:45;;;;;;;13.52;2.15;;;10.90;99.90;;;;;;4202620;28;20028;-72
2023/12/29 08:24:45;;;;;;;18.48;3.08;;;10.90;99.90;;;;;;4202427;28;20017;-72
2023/12/29 08:26:47;;;;;;;13.70;3.47;;;10.90;99.90;;;;;;4202570;28;20396;-72
2023/12/29 08:28:47;;;;;;;17.33;3.03;;;10.90;99.90;;;;;;4202473;28;20361;-72
2023/12/29 08:30:48;;;;;;;22.95;3.33;;;10.90;99.90;;;;;;4190542;28;20112;-72
2023/12/29 08:32:48;;;;;;;16.58;2.35;;;10.90;99.90;;;;;;4202500;28;20016;-72
2023/12/29 08:34:49;;;;;;;17.40;2.60;;;10.90;99.90;;;;;;4202528;28;20125;-72
2023/12/29 08:36:50;;;;;;;18.23;3.53;;;10.90;99.90;;;;;;4200974;28;20025;-72
2023/12/29 08:38:52;;;;;;;18.50;2.85;;;11.00;99.90;;;;;;4201744;28;20518;-72
2023/12/29 08:40:53;;;;;;;29.45;3.05;;;11.00;99.90;;;;;;4202619;28;20021;-72
2023/12/29 08:42:54;;;;;;;22.35;4.38;;;11.10;99.90;;;;;;4201155;28;20028;-72
2023/12/29 08:44:55;;;;;;;15.82;3.38;;;11.10;99.90;;;;;;4202289;28;20016;-72
2023/12/29 08:46:56;;;;;;;21.08;3.13;;;11.20;99.90;;;;;;4202102;28;20070;-72
2023/12/29 08:48:56;;;;;;;12.13;2.30;;;11.30;99.90;;;;;;4201071;28;20039;-72
2023/12/29 08:50:57;;;;;;;20.13;4.03;;;11.30;99.90;;;;;;4201070;28;20020;-72
2023/12/29 08:52:58;;;;;;;17.67;2.78;;;11.40;99.90;;;;;;4201952;28;20099;-72
2023/12/29 08:54:58;;;;;;;19.63;3.28;;;11.60;99.90;;;;;;4201827;28;20021;-72
2023/12/29 08:56:59;;;;;;;13.88;4.03;;;11.60;99.90;;;;;;4184570;28;20024;-72
2023/12/29 08:59:00;;;;;;;15.32;2.63;;;11.80;99.90;;;;;;4198728;28;20028;-72
2023/12/29 09:01:00;;;;;;;13.43;2.67;;;11.90;99.90;;;;;;4200149;28;20120;-72
2023/12/29 09:03:01;;;;;;;22.50;4.18;;;11.90;99.90;;;;;;4202174;28;20047;-72
2023/12/29 09:05:02;;;;;;;18.33;3.03;;;12.00;99.90;;;;;;4202171;28;20479;-72
2023/12/29 09:07:04;;;;;;;16.42;2.90;;;12.00;99.90;;;;;;4200901;28;20100;-72
2023/12/29 09:09:05;;;;;;;15.32;4.10;;;12.00;99.90;;;;;;4200443;28;20040;-72
2023/12/29 09:11:05;;;;;;;15.13;2.60;;;12.00;99.90;;;;;;4201866;28;20027;-72
2023/12/29 09:13:06;;;;;;;16.63;3.65;;;11.90;99.90;;;;;;4202232;28;20028;-72
2023/12/29 09:15:07;;;;;;;17.85;3.50;;;11.90;99.90;;;;;;4201981;28;20032;-72
2023/12/29 09:17:08;;;;;;;18.52;3.15;;;11.80;99.90;;;;;;4202010;28;20023;-72
2023/12/29 09:19:09;;;;;;;14.88;3.40;;;11.80;99.90;;;;;;4201571;28;20040;-72
2023/12/29 09:21:10;;;;;;;12.13;3.83;;;11.70;99.90;;;;;;4201930;28;20040;-72
2023/12/29 09:23:11;;;;;;;16.85;3.47;;;11.80;99.90;;;;;;4201407;28;20392;-72
2023/12/29 09:25:11;;;;;;;26.50;5.78;;;11.80;99.90;;;;;;4201619;28;20025;-72
2023/12/29 09:27:13;;;;;;;17.60;3.53;;;11.90;99.90;;;;;;4201792;28;20021;-72
2023/12/29 09:29:14;;;;;;;18.23;2.90;;;12.00;99.90;;;;;;4183493;28;20052;-72
2023/12/29 09:31:14;;;;;;;18.48;3.63;;;12.00;99.90;;;;;;4199278;28;20043;-72
2023/12/29 09:33:15;;;;;;;24.42;3.97;;;12.10;99.90;;;;;;4201877;28;20059;-72
2023/12/29 09:35:17;;;;;;;15.23;3.40;;;12.10;99.90;;;;;;4183823;28;20032;-72
2023/12/29 09:37:18;;;;;;;13.38;3.55;;;12.20;99.90;;;;;;4201310;28;20093;-72
2023/12/29 09:39:18;;;;;;;22.77;4.82;;;12.30;99.90;;;;;;4183116;28;20021;-72
2023/12/29 09:41:21;;;;;;;20.67;6.60;;;12.40;99.90;;;;;;4201708;28;20025;-72
2023/12/29 09:43:21;;;;;;;15.10;3.88;;;12.50;99.90;;;;;;4200514;28;20116;-72
2023/12/29 09:45:25;;;;;;;21.60;4.55;;;12.50;99.90;;;;;;4200353;28;20020;-72
2023/12/29 09:47:26;;;;;;;12.93;3.55;;;12.50;99.90;;;;;;4202113;28;20101;-72
2023/12/29 09:49:31;;;;;;;21.13;5.68;;;12.50;99.90;;;;;;4200530;28;20116;-72
2023/12/29 09:51:31;;;;;;;;;;;12.40;99.90;;;;;;4184036;28;20056;-72
2023/12/29 09:53:32;;;;;;;17.33;4.10;;;12.40;99.90;;;;;;4217071;28;19904;-72
2023/12/29 09:55:33;;;;;;;18.85;4.10;;;12.50;99.90;;;;;;4190018;28;20028;-72
2023/12/29 09:57:33;;;;;;;15.00;3.65;;;12.50;99.90;;;;;;4200558;28;20051;-72
2023/12/29 09:59:38;;;;;;;23.65;5.38;;;12.50;99.90;;;;;;4200236;28;20025;-72
2023/12/29 10:01:39;;;;;;;16.27;3.38;;;12.60;99.90;;;;;;4200243;28;20084;-72
2023/12/29 10:03:40;;;;;;;22.38;4.90;;;12.60;99.90;;;;;;4183628;28;20029;-72
2023/12/29 10:05:40;;;;;;;22.05;5.00;;;12.60;99.90;;;;;;4201409;28;20502;-72
2023/12/29 10:07:43;;;;;;;21.48;5.18;;;12.60;99.90;;;;;;4200329;28;20438;-72
2023/12/29 10:09:45;;;;;;;27.15;6.78;;;12.50;99.90;;;;;;4199647;28;20027;-72
2023/12/29 10:11:48;;;;;;;25.58;5.53;;;12.50;99.90;;;;;;4185942;28;20031;-72
2023/12/29 10:13:50;;;;;;;28.33;7.10;;;12.60;99.90;;;;;;4210555;28;20031;-72
2023/12/29 10:16:15;;;;;;;25.70;10.20;;;12.70;99.90;;;;;;4203456;28;20095;-72
2023/12/29 10:18:27;;;;;;;;;;;12.80;99.90;;;;;;4203716;28;20052;-72
2023/12/29 10:20:50;;;;;;;47.55;21.58;;;13.00;99.90;;;;;;4204576;28;20287;-72
2023/12/29 10:23:16;;;;;;;65.68;28.58;;;13.10;99.90;;;;;;4204685;28;20373;-72
2023/12/29 10:25:17;;;;;;;50.80;22.45;;;13.20;99.90;;;;;;4203183;28;20027;-72